sensor_id;sensor_type;location;lat;lon;timestamp;temperature;humidity
48162;DHT22;33950;48.154;16.316;2023-03-23T00:01:19;13.40;78.70
48162;DHT22;33950;48.154;16.316;2023-03-23T00:04:05;13.30;78.90
48162;DHT22;33950;48.154;16.316;2023-03-23T00:06:54;13.20;79.10
48162;DHT22;33950;48.154;16.316;2023-03-23T00:09:40;13.10;79.30
48162;DHT22;33950;48.154;16.316;2023-03-23T00:12:28;13.20;79.40
48162;DHT22;33950;48.154;16.316;2023-03-23T00:15:19;13.30;79.10
48162;DHT22;33950;48.154;16.316;2023-03-23T00:18:05;13.30;78.90
48162;DHT22;33950;48.154;16.316;2023-03-23T00:20:53;13.20;79.80
48162;DHT22;33950;48.154;16.316;2023-03-23T00:23:40;13.20;79.30
48162;DHT22;33950;48.154;16.316;2023-03-23T00:26:30;13.30;79.40
48162;DHT22;33950;48.154;16.316;2023-03-23T00:29:20;13.30;79.40
48162;DHT22;33950;48.154;16.316;2023-03-23T00:32:07;13.20;79.40
48162;DHT22;33950;48.154;16.316;2023-03-23T00:34:58;13.20;79.30
48162;DHT22;33950;48.154;16.316;2023-03-23T00:37:44;13.10;79.70
48162;DHT22;33950;48.154;16.316;2023-03-23T00:40:32;13.00;80.00
48162;DHT22;33950;48.154;16.316;2023-03-23T00:43:21;12.90;80.80
48162;DHT22;33950;48.154;16.316;2023-03-23T00:46:10;12.70;80.70
48162;DHT22;33950;48.154;16.316;2023-03-23T00:48:56;12.50;81.20
48162;DHT22;33950;48.154;16.316;2023-03-23T00:51:43;12.50;81.80
48162;DHT22;33950;48.154;16.316;2023-03-23T00:54:29;12.30;81.80
48162;DHT22;33950;48.154;16.316;2023-03-23T00:57:17;12.20;81.90
48162;DHT22;33950;48.154;16.316;2023-03-23T01:00:04;12.10;82.30
48162;DHT22;33950;48.154;16.316;2023-03-23T01:02:56;12.00;82.40
48162;DHT22;33950;48.154;16.316;2023-03-23T01:05:42;11.90;82.60
48162;DHT22;33950;48.154;16.316;2023-03-23T01:08:29;11.90;82.80
48162;DHT22;33950;48.154;16.316;2023-03-23T01:11:17;12.00;82.90
48162;DHT22;33950;48.154;16.316;2023-03-23T01:14:04;12.10;82.60
48162;DHT22;33950;48.154;16.316;2023-03-23T01:16:51;12.00;82.50
48162;DHT22;33950;48.154;16.316;2023-03-23T01:19:37;12.00;82.50
48162;DHT22;33950;48.154;16.316;2023-03-23T01:22:23;11.80;82.60
48162;DHT22;33950;48.154;16.316;2023-03-23T01:25:12;11.80;82.60
48162;DHT22;33950;48.154;16.316;2023-03-23T01:27:58;12.00;82.40
48162;DHT22;33950;48.154;16.316;2023-03-23T01:30:46;11.90;82.60
48162;DHT22;33950;48.154;16.316;2023-03-23T01:33:32;12.20;81.90
48162;DHT22;33950;48.154;16.316;2023-03-23T01:36:20;12.10;82.00
48162;DHT22;33950;48.154;16.316;2023-03-23T01:41:53;12.00;81.60
48162;DHT22;33950;48.154;16.316;2023-03-23T01:48:07;12.30;81.00
48162;DHT22;33950;48.154;16.316;2023-03-23T01:50:57;12.30;81.60
48162;DHT22;33950;48.154;16.316;2023-03-23T01:53:47;11.90;82.10
48162;DHT22;33950;48.154;16.316;2023-03-23T01:56:38;12.00;82.40
48162;DHT22;33950;48.154;16.316;2023-03-23T01:59:28;11.60;82.10
48162;DHT22;33950;48.154;16.316;2023-03-23T02:02:15;11.90;82.50
48162;DHT22;33950;48.154;16.316;2023-03-23T02:05:08;12.10;82.30
48162;DHT22;33950;48.154;16.316;2023-03-23T02:07:58;12.20;81.90
48162;DHT22;33950;48.154;16.316;2023-03-23T02:10:48;12.20;81.80
48162;DHT22;33950;48.154;16.316;2023-03-23T02:13:34;12.20;81.70
48162;DHT22;33950;48.154;16.316;2023-03-23T02:16:28;12.20;82.40
48162;DHT22;33950;48.154;16.316;2023-03-23T02:19:35;12.30;81.60
48162;DHT22;33950;48.154;16.316;2023-03-23T02:22:45;12.30;81.50
48162;DHT22;33950;48.154;16.316;2023-03-23T02:25:46;12.20;81.50
48162;DHT22;33950;48.154;16.316;2023-03-23T02:29:07;12.30;81.60
48162;DHT22;33950;48.154;16.316;2023-03-23T02:32:13;12.40;81.10
48162;DHT22;33950;48.154;16.316;2023-03-23T02:35:07;12.50;80.90
48162;DHT22;33950;48.154;16.316;2023-03-23T02:37:58;12.40;80.80
48162;DHT22;33950;48.154;16.316;2023-03-23T02:40:49;12.40;80.90
48162;DHT22;33950;48.154;16.316;2023-03-23T02:43:38;12.50;80.90
48162;DHT22;33950;48.154;16.316;2023-03-23T02:46:26;12.50;81.00
48162;DHT22;33950;48.154;16.316;2023-03-23T02:49:15;12.40;81.00
48162;DHT22;33950;48.154;16.316;2023-03-23T02:52:06;12.30;81.20
48162;DHT22;33950;48.154;16.316;2023-03-23T02:54:55;12.40;81.20
48162;DHT22;33950;48.154;16.316;2023-03-23T02:57:42;12.30;81.00
48162;DHT22;33950;48.154;16.316;2023-03-23T03:00:29;12.20;81.30
48162;DHT22;33950;48.154;16.316;2023-03-23T03:03:18;12.30;81.20
48162;DHT22;33950;48.154;16.316;2023-03-23T03:06:14;12.30;81.00
48162;DHT22;33950;48.154;16.316;2023-03-23T03:09:11;12.20;81.00
48162;DHT22;33950;48.154;16.316;2023-03-23T03:12:06;12.30;81.20
48162;DHT22;33950;48.154;16.316;2023-03-23T03:14:59;12.30;81.20
48162;DHT22;33950;48.154;16.316;2023-03-23T03:17:53;12.30;81.20
48162;DHT22;33950;48.154;16.316;2023-03-23T03:20:45;12.20;81.20
48162;DHT22;33950;48.154;16.316;2023-03-23T03:23:32;12.20;81.30
48162;DHT22;33950;48.154;16.316;2023-03-23T03:26:21;12.20;81.40
48162;DHT22;33950;48.154;16.316;2023-03-23T03:29:12;12.20;81.20
48162;DHT22;33950;48.154;16.316;2023-03-23T03:32:00;12.20;81.30
48162;DHT22;33950;48.154;16.316;2023-03-23T03:34:47;12.20;81.20
48162;DHT22;33950;48.154;16.316;2023-03-23T03:37:37;12.10;80.80
48162;DHT22;33950;48.154;16.316;2023-03-23T03:40:24;11.40;82.30
48162;DHT22;33950;48.154;16.316;2023-03-23T03:43:11;12.00;80.70
48162;DHT22;33950;48.154;16.316;2023-03-23T03:45:57;12.10;81.10
48162;DHT22;33950;48.154;16.316;2023-03-23T03:48:43;11.30;81.30
48162;DHT22;33950;48.154;16.316;2023-03-23T03:51:30;11.70;81.70
48162;DHT22;33950;48.154;16.316;2023-03-23T03:54:16;11.50;82.20
48162;DHT22;33950;48.154;16.316;2023-03-23T03:57:03;11.20;82.80
48162;DHT22;33950;48.154;16.316;2023-03-23T03:59:50;11.00;83.40
48162;DHT22;33950;48.154;16.316;2023-03-23T04:02:37;11.00;83.70
48162;DHT22;33950;48.154;16.316;2023-03-23T04:05:23;11.00;83.70
48162;DHT22;33950;48.154;16.316;2023-03-23T04:08:10;11.00;83.80
48162;DHT22;33950;48.154;16.316;2023-03-23T04:10:56;11.00;83.90
48162;DHT22;33950;48.154;16.316;2023-03-23T04:13:43;11.00;83.90
48162;DHT22;33950;48.154;16.316;2023-03-23T04:16:32;11.00;84.20
48162;DHT22;33950;48.154;16.316;2023-03-23T04:19:20;11.10;83.90
48162;DHT22;33950;48.154;16.316;2023-03-23T04:22:06;11.00;84.10
48162;DHT22;33950;48.154;16.316;2023-03-23T04:24:52;11.00;84.20
48162;DHT22;33950;48.154;16.316;2023-03-23T04:27:39;11.20;84.00
48162;DHT22;33950;48.154;16.316;2023-03-23T04:30:29;11.20;83.60
48162;DHT22;33950;48.154;16.316;2023-03-23T04:33:19;11.40;83.40
48162;DHT22;33950;48.154;16.316;2023-03-23T04:36:06;11.50;83.10
48162;DHT22;33950;48.154;16.316;2023-03-23T04:38:52;11.40;83.10
48162;DHT22;33950;48.154;16.316;2023-03-23T04:41:40;11.40;83.10
48162;DHT22;33950;48.154;16.316;2023-03-23T04:44:26;11.30;83.30
48162;DHT22;33950;48.154;16.316;2023-03-23T04:47:13;11.30;83.30
48162;DHT22;33950;48.154;16.316;2023-03-23T04:50:05;11.30;83.30
48162;DHT22;33950;48.154;16.316;2023-03-23T04:52:52;11.30;83.50
48162;DHT22;33950;48.154;16.316;2023-03-23T04:55:41;11.40;83.30
48162;DHT22;33950;48.154;16.316;2023-03-23T04:58:28;12.80;83.80
48162;DHT22;33950;48.154;16.316;2023-03-23T05:01:14;11.30;83.10
48162;DHT22;33950;48.154;16.316;2023-03-23T05:04:01;11.30;83.30
48162;DHT22;33950;48.154;16.316;2023-03-23T05:06:49;11.30;83.90
48162;DHT22;33950;48.154;16.316;2023-03-23T05:09:35;11.40;83.00
48162;DHT22;33950;48.154;16.316;2023-03-23T05:12:21;11.30;82.70
48162;DHT22;33950;48.154;16.316;2023-03-23T05:15:13;11.40;82.60
48162;DHT22;33950;48.154;16.316;2023-03-23T05:17:59;11.30;83.00
48162;DHT22;33950;48.154;16.316;2023-03-23T05:20:45;11.20;83.20
48162;DHT22;33950;48.154;16.316;2023-03-23T05:23:33;11.20;83.10
48162;DHT22;33950;48.154;16.316;2023-03-23T05:26:19;11.20;83.30
48162;DHT22;33950;48.154;16.316;2023-03-23T05:29:05;11.30;83.40
48162;DHT22;33950;48.154;16.316;2023-03-23T05:31:52;11.30;83.30
48162;DHT22;33950;48.154;16.316;2023-03-23T05:34:38;11.30;83.30
48162;DHT22;33950;48.154;16.316;2023-03-23T05:37:25;11.30;83.20
48162;DHT22;33950;48.154;16.316;2023-03-23T05:40:14;11.30;83.20
48162;DHT22;33950;48.154;16.316;2023-03-23T05:43:00;11.20;83.20
48162;DHT22;33950;48.154;16.316;2023-03-23T05:45:46;11.30;83.70
48162;DHT22;33950;48.154;16.316;2023-03-23T05:48:32;11.40;83.50
48162;DHT22;33950;48.154;16.316;2023-03-23T05:51:19;11.50;83.50
48162;DHT22;33950;48.154;16.316;2023-03-23T05:54:05;11.50;83.30
48162;DHT22;33950;48.154;16.316;2023-03-23T05:56:53;11.60;83.40
48162;DHT22;33950;48.154;16.316;2023-03-23T05:59:40;11.60;83.60
48162;DHT22;33950;48.154;16.316;2023-03-23T06:02:26;11.70;83.90
48162;DHT22;33950;48.154;16.316;2023-03-23T06:05:15;11.80;83.60
48162;DHT22;33950;48.154;16.316;2023-03-23T06:08:01;11.80;83.30
48162;DHT22;33950;48.154;16.316;2023-03-23T06:10:48;12.00;83.10
48162;DHT22;33950;48.154;16.316;2023-03-23T06:13:35;12.00;82.90
48162;DHT22;33950;48.154;16.316;2023-03-23T06:16:25;12.10;82.80
48162;DHT22;33950;48.154;16.316;2023-03-23T06:19:11;12.20;83.00
48162;DHT22;33950;48.154;16.316;2023-03-23T06:21:57;12.10;83.10
48162;DHT22;33950;48.154;16.316;2023-03-23T06:24:43;12.10;83.30
48162;DHT22;33950;48.154;16.316;2023-03-23T06:27:29;12.10;83.40
48162;DHT22;33950;48.154;16.316;2023-03-23T06:30:17;12.20;83.00
48162;DHT22;33950;48.154;16.316;2023-03-23T06:33:04;12.20;83.00
48162;DHT22;33950;48.154;16.316;2023-03-23T06:35:51;12.30;82.70
48162;DHT22;33950;48.154;16.316;2023-03-23T06:38:37;12.20;82.60
48162;DHT22;33950;48.154;16.316;2023-03-23T06:41:23;12.20;83.00
48162;DHT22;33950;48.154;16.316;2023-03-23T06:44:09;12.10;83.30
48162;DHT22;33950;48.154;16.316;2023-03-23T06:47:00;12.10;83.50
48162;DHT22;33950;48.154;16.316;2023-03-23T06:49:47;12.20;83.40
48162;DHT22;33950;48.154;16.316;2023-03-23T06:52:34;12.40;83.20
48162;DHT22;33950;48.154;16.316;2023-03-23T06:55:20;12.40;82.90
48162;DHT22;33950;48.154;16.316;2023-03-23T06:58:06;12.50;82.70
48162;DHT22;33950;48.154;16.316;2023-03-23T07:00:55;12.60;82.70
48162;DHT22;33950;48.154;16.316;2023-03-23T07:03:43;12.70;82.80
48162;DHT22;33950;48.154;16.316;2023-03-23T07:06:30;12.70;83.00
48162;DHT22;33950;48.154;16.316;2023-03-23T07:09:17;12.80;83.40
48162;DHT22;33950;48.154;16.316;2023-03-23T07:12:03;12.90;83.20
48162;DHT22;33950;48.154;16.316;2023-03-23T07:14:49;12.90;83.00
48162;DHT22;33950;48.154;16.316;2023-03-23T07:17:35;13.00;82.90
48162;DHT22;33950;48.154;16.316;2023-03-23T07:20:23;13.20;83.30
48162;DHT22;33950;48.154;16.316;2023-03-23T07:23:09;13.30;82.50
48162;DHT22;33950;48.154;16.316;2023-03-23T07:25:55;13.50;82.30
48162;DHT22;33950;48.154;16.316;2023-03-23T07:28:42;13.50;82.10
48162;DHT22;33950;48.154;16.316;2023-03-23T07:31:29;13.70;81.90
48162;DHT22;33950;48.154;16.316;2023-03-23T07:34:15;13.80;81.60
48162;DHT22;33950;48.154;16.316;2023-03-23T07:37:03;13.80;80.90
48162;DHT22;33950;48.154;16.316;2023-03-23T07:39:49;13.70;80.70
48162;DHT22;33950;48.154;16.316;2023-03-23T07:42:35;13.70;80.70
48162;DHT22;33950;48.154;16.316;2023-03-23T07:45:21;13.90;80.50
48162;DHT22;33950;48.154;16.316;2023-03-23T07:48:07;14.00;80.50
48162;DHT22;33950;48.154;16.316;2023-03-23T07:50:54;14.00;80.50
48162;DHT22;33950;48.154;16.316;2023-03-23T07:53:42;14.00;80.60
48162;DHT22;33950;48.154;16.316;2023-03-23T07:56:30;14.20;80.70
48162;DHT22;33950;48.154;16.316;2023-03-23T07:59:16;14.10;80.40
48162;DHT22;33950;48.154;16.316;2023-03-23T08:02:02;14.10;80.70
48162;DHT22;33950;48.154;16.316;2023-03-23T08:04:49;14.20;80.70
48162;DHT22;33950;48.154;16.316;2023-03-23T08:07:36;14.30;80.60
48162;DHT22;33950;48.154;16.316;2023-03-23T08:10:24;14.50;80.70
48162;DHT22;33950;48.154;16.316;2023-03-23T08:13:10;14.60;80.60
48162;DHT22;33950;48.154;16.316;2023-03-23T08:15:56;14.40;80.30
48162;DHT22;33950;48.154;16.316;2023-03-23T08:18:42;14.40;80.60
48162;DHT22;33950;48.154;16.316;2023-03-23T08:21:28;14.40;80.10
48162;DHT22;33950;48.154;16.316;2023-03-23T08:24:15;14.50;80.10
48162;DHT22;33950;48.154;16.316;2023-03-23T08:27:03;14.60;80.10
48162;DHT22;33950;48.154;16.316;2023-03-23T08:29:49;14.60;80.00
48162;DHT22;33950;48.154;16.316;2023-03-23T08:32:35;14.70;80.00
48162;DHT22;33950;48.154;16.316;2023-03-23T08:35:22;14.60;80.00
48162;DHT22;33950;48.154;16.316;2023-03-23T08:38:08;14.70;80.10
48162;DHT22;33950;48.154;16.316;2023-03-23T08:40:57;14.70;80.00
48162;DHT22;33950;48.154;16.316;2023-03-23T08:43:45;14.70;79.50
48162;DHT22;33950;48.154;16.316;2023-03-23T08:46:32;14.70;79.20
48162;DHT22;33950;48.154;16.316;2023-03-23T08:49:18;14.60;79.30
48162;DHT22;33950;48.154;16.316;2023-03-23T08:52:06;14.50;79.30
48162;DHT22;33950;48.154;16.316;2023-03-23T08:54:53;14.60;79.60
48162;DHT22;33950;48.154;16.316;2023-03-23T08:57:39;14.60;79.30
48162;DHT22;33950;48.154;16.316;2023-03-23T09:00:27;14.70;79.30
48162;DHT22;33950;48.154;16.316;2023-03-23T09:03:14;14.60;79.30
48162;DHT22;33950;48.154;16.316;2023-03-23T09:06:04;14.60;79.10
48162;DHT22;33950;48.154;16.316;2023-03-23T09:08:51;14.60;79.30
48162;DHT22;33950;48.154;16.316;2023-03-23T09:11:38;14.60;80.10
48162;DHT22;33950;48.154;16.316;2023-03-23T09:14:24;14.60;79.60
48162;DHT22;33950;48.154;16.316;2023-03-23T09:17:13;14.60;79.80
48162;DHT22;33950;48.154;16.316;2023-03-23T09:20:00;14.60;79.80
48162;DHT22;33950;48.154;16.316;2023-03-23T09:22:48;14.60;79.60
48162;DHT22;33950;48.154;16.316;2023-03-23T09:25:34;14.70;79.90
48162;DHT22;33950;48.154;16.316;2023-03-23T09:28:20;14.70;79.80
48162;DHT22;33950;48.154;16.316;2023-03-23T09:31:06;14.70;80.50
48162;DHT22;33950;48.154;16.316;2023-03-23T09:33:54;14.70;80.20
48162;DHT22;33950;48.154;16.316;2023-03-23T09:36:42;14.90;79.90
48162;DHT22;33950;48.154;16.316;2023-03-23T09:39:28;14.90;79.60
48162;DHT22;33950;48.154;16.316;2023-03-23T09:42:25;15.00;79.50
48162;DHT22;33950;48.154;16.316;2023-03-23T09:45:20;15.10;80.30
48162;DHT22;33950;48.154;16.316;2023-03-23T09:48:24;15.20;79.70
48162;DHT22;33950;48.154;16.316;2023-03-23T09:51:22;15.30;79.40
48162;DHT22;33950;48.154;16.316;2023-03-23T09:54:15;15.50;79.80
48162;DHT22;33950;48.154;16.316;2023-03-23T09:57:03;15.60;79.80
48162;DHT22;33950;48.154;16.316;2023-03-23T09:59:54;15.60;79.30
48162;DHT22;33950;48.154;16.316;2023-03-23T10:02:46;15.70;79.00
48162;DHT22;33950;48.154;16.316;2023-03-23T10:05:36;15.80;79.10
48162;DHT22;33950;48.154;16.316;2023-03-23T10:08:25;16.00;78.90
48162;DHT22;33950;48.154;16.316;2023-03-23T10:11:20;16.00;78.90
48162;DHT22;33950;48.154;16.316;2023-03-23T10:14:27;16.10;78.80
48162;DHT22;33950;48.154;16.316;2023-03-23T10:17:18;16.20;77.90
48162;DHT22;33950;48.154;16.316;2023-03-23T10:20:31;16.30;78.10
48162;DHT22;33950;48.154;16.316;2023-03-23T10:23:39;16.40;77.70
48162;DHT22;33950;48.154;16.316;2023-03-23T10:26:33;16.50;77.90
48162;DHT22;33950;48.154;16.316;2023-03-23T10:29:26;16.60;77.80
48162;DHT22;33950;48.154;16.316;2023-03-23T10:32:17;16.70;77.20
48162;DHT22;33950;48.154;16.316;2023-03-23T10:35:09;16.80;77.30
48162;DHT22;33950;48.154;16.316;2023-03-23T10:38:02;16.90;77.10
48162;DHT22;33950;48.154;16.316;2023-03-23T10:40:55;17.00;77.30
48162;DHT22;33950;48.154;16.316;2023-03-23T10:43:42;17.30;77.50
48162;DHT22;33950;48.154;16.316;2023-03-23T10:46:36;18.00;77.00
48162;DHT22;33950;48.154;16.316;2023-03-23T10:49:28;18.90;75.60
48162;DHT22;33950;48.154;16.316;2023-03-23T10:52:26;19.60;74.00
48162;DHT22;33950;48.154;16.316;2023-03-23T10:55:15;20.10;72.10
48162;DHT22;33950;48.154;16.316;2023-03-23T10:58:04;20.40;72.20
48162;DHT22;33950;48.154;16.316;2023-03-23T11:00:51;20.90;71.70
48162;DHT22;33950;48.154;16.316;2023-03-23T11:03:40;21.30;70.70
48162;DHT22;33950;48.154;16.316;2023-03-23T11:06:29;21.50;70.00
48162;DHT22;33950;48.154;16.316;2023-03-23T11:09:17;21.70;70.00
48162;DHT22;33950;48.154;16.316;2023-03-23T11:12:04;22.10;69.60
48162;DHT22;33950;48.154;16.316;2023-03-23T11:14:52;22.50;69.00
48162;DHT22;33950;48.154;16.316;2023-03-23T11:17:55;22.80;67.70
48162;DHT22;33950;48.154;16.316;2023-03-23T11:20:44;23.20;66.90
48162;DHT22;33950;48.154;16.316;2023-03-23T11:23:34;23.50;67.20
48162;DHT22;33950;48.154;16.316;2023-03-23T11:26:22;23.70;65.10
48162;DHT22;33950;48.154;16.316;2023-03-23T11:29:12;23.80;65.80
48162;DHT22;33950;48.154;16.316;2023-03-23T11:32:05;23.80;65.60
48162;DHT22;33950;48.154;16.316;2023-03-23T11:34:57;23.50;65.90
48162;DHT22;33950;48.154;16.316;2023-03-23T11:37:47;23.30;65.30
48162;DHT22;33950;48.154;16.316;2023-03-23T11:40:43;23.00;65.20
48162;DHT22;33950;48.154;16.316;2023-03-23T11:43:38;24.10;66.00
48162;DHT22;33950;48.154;16.316;2023-03-23T11:46:32;22.80;66.10
48162;DHT22;33950;48.154;16.316;2023-03-23T11:49:30;22.80;66.30
48162;DHT22;33950;48.154;16.316;2023-03-23T11:52:22;22.80;66.30
48162;DHT22;33950;48.154;16.316;2023-03-23T11:55:11;22.90;67.00
48162;DHT22;33950;48.154;16.316;2023-03-23T11:58:03;22.70;65.40
48162;DHT22;33950;48.154;16.316;2023-03-23T12:00:55;22.40;65.50
48162;DHT22;33950;48.154;16.316;2023-03-23T12:03:56;22.20;65.30
48162;DHT22;33950;48.154;16.316;2023-03-23T12:06:50;22.10;65.70
48162;DHT22;33950;48.154;16.316;2023-03-23T12:09:43;22.10;66.50
48162;DHT22;33950;48.154;16.316;2023-03-23T12:12:37;22.10;65.80
48162;DHT22;33950;48.154;16.316;2023-03-23T12:15:30;22.00;65.70
48162;DHT22;33950;48.154;16.316;2023-03-23T12:18:24;22.10;66.30
48162;DHT22;33950;48.154;16.316;2023-03-23T12:21:22;22.00;65.30
48162;DHT22;33950;48.154;16.316;2023-03-23T12:24:21;22.00;65.50
48162;DHT22;33950;48.154;16.316;2023-03-23T12:27:16;22.00;64.90
48162;DHT22;33950;48.154;16.316;2023-03-23T12:30:15;21.90;65.20
48162;DHT22;33950;48.154;16.316;2023-03-23T12:33:17;22.00;65.00
48162;DHT22;33950;48.154;16.316;2023-03-23T12:36:13;22.10;65.60
48162;DHT22;33950;48.154;16.316;2023-03-23T12:42:26;23.00;64.50
48162;DHT22;33950;48.154;16.316;2023-03-23T12:45:23;23.30;64.60
48162;DHT22;33950;48.154;16.316;2023-03-23T12:48:13;23.30;64.10
48162;DHT22;33950;48.154;16.316;2023-03-23T12:51:11;22.90;63.40
48162;DHT22;33950;48.154;16.316;2023-03-23T12:54:07;22.90;63.70
48162;DHT22;33950;48.154;16.316;2023-03-23T12:57:00;22.80;63.60
48162;DHT22;33950;48.154;16.316;2023-03-23T12:59:54;22.80;63.40
48162;DHT22;33950;48.154;16.316;2023-03-23T13:02:44;22.80;64.20
48162;DHT22;33950;48.154;16.316;2023-03-23T13:05:40;22.80;64.10
48162;DHT22;33950;48.154;16.316;2023-03-23T13:08:33;23.00;64.00
48162;DHT22;33950;48.154;16.316;2023-03-23T13:11:20;23.10;64.90
48162;DHT22;33950;48.154;16.316;2023-03-23T13:14:18;23.50;64.70
48162;DHT22;33950;48.154;16.316;2023-03-23T13:17:18;23.90;63.10
48162;DHT22;33950;48.154;16.316;2023-03-23T13:20:44;24.20;63.20
48162;DHT22;33950;48.154;16.316;2023-03-23T13:23:36;24.50;63.10
48162;DHT22;33950;48.154;16.316;2023-03-23T13:26:24;24.80;62.80
48162;DHT22;33950;48.154;16.316;2023-03-23T13:29:14;25.00;62.50
48162;DHT22;33950;48.154;16.316;2023-03-23T13:32:15;25.10;62.40
48162;DHT22;33950;48.154;16.316;2023-03-23T13:35:04;25.40;61.30
48162;DHT22;33950;48.154;16.316;2023-03-23T13:37:52;25.50;61.70
48162;DHT22;33950;48.154;16.316;2023-03-23T13:40:43;25.60;62.20
48162;DHT22;33950;48.154;16.316;2023-03-23T13:43:31;25.60;61.50
48162;DHT22;33950;48.154;16.316;2023-03-23T13:46:27;25.80;61.10
48162;DHT22;33950;48.154;16.316;2023-03-23T13:49:20;26.00;60.70
48162;DHT22;33950;48.154;16.316;2023-03-23T13:52:17;25.80;60.50
48162;DHT22;33950;48.154;16.316;2023-03-23T13:55:39;25.60;61.20
48162;DHT22;33950;48.154;16.316;2023-03-23T13:58:26;25.50;61.20
48162;DHT22;33950;48.154;16.316;2023-03-23T14:01:16;25.60;61.10
48162;DHT22;33950;48.154;16.316;2023-03-23T14:04:05;25.80;61.30
48162;DHT22;33950;48.154;16.316;2023-03-23T14:06:53;26.00;60.80
48162;DHT22;33950;48.154;16.316;2023-03-23T14:09:41;25.90;61.20
48162;DHT22;33950;48.154;16.316;2023-03-23T14:12:29;25.70;61.60
48162;DHT22;33950;48.154;16.316;2023-03-23T14:15:15;25.50;61.50
48162;DHT22;33950;48.154;16.316;2023-03-23T14:18:03;25.40;61.90
48162;DHT22;33950;48.154;16.316;2023-03-23T14:20:50;25.70;61.10
48162;DHT22;33950;48.154;16.316;2023-03-23T14:23:38;25.60;60.70
48162;DHT22;33950;48.154;16.316;2023-03-23T14:26:25;25.70;60.70
48162;DHT22;33950;48.154;16.316;2023-03-23T14:29:13;25.50;59.70
48162;DHT22;33950;48.154;16.316;2023-03-23T14:31:59;25.50;60.10
48162;DHT22;33950;48.154;16.316;2023-03-23T14:34:47;25.60;59.50
48162;DHT22;33950;48.154;16.316;2023-03-23T14:37:34;25.90;59.90
48162;DHT22;33950;48.154;16.316;2023-03-23T14:40:25;25.90;58.60
48162;DHT22;33950;48.154;16.316;2023-03-23T14:43:14;25.60;58.70
48162;DHT22;33950;48.154;16.316;2023-03-23T14:46:06;25.60;58.20
48162;DHT22;33950;48.154;16.316;2023-03-23T14:48:53;25.40;58.60
48162;DHT22;33950;48.154;16.316;2023-03-23T14:51:47;25.30;57.60
48162;DHT22;33950;48.154;16.316;2023-03-23T14:54:33;25.40;58.20
48162;DHT22;33950;48.154;16.316;2023-03-23T14:57:27;25.70;58.00
48162;DHT22;33950;48.154;16.316;2023-03-23T15:00:15;25.90;58.10
48162;DHT22;33950;48.154;16.316;2023-03-23T15:03:03;26.00;57.70
48162;DHT22;33950;48.154;16.316;2023-03-23T15:05:53;26.10;57.90
48162;DHT22;33950;48.154;16.316;2023-03-23T15:08:40;25.90;57.60
48162;DHT22;33950;48.154;16.316;2023-03-23T15:11:29;25.60;57.80
48162;DHT22;33950;48.154;16.316;2023-03-23T15:14:19;25.60;57.90
48162;DHT22;33950;48.154;16.316;2023-03-23T15:17:11;25.70;57.90
48162;DHT22;33950;48.154;16.316;2023-03-23T15:20:09;25.80;57.80
48162;DHT22;33950;48.154;16.316;2023-03-23T15:22:56;25.60;57.30
48162;DHT22;33950;48.154;16.316;2023-03-23T15:25:47;25.60;56.80
48162;DHT22;33950;48.154;16.316;2023-03-23T15:28:39;25.60;57.00
48162;DHT22;33950;48.154;16.316;2023-03-23T15:31:26;25.60;56.70
48162;DHT22;33950;48.154;16.316;2023-03-23T15:34:25;25.40;57.50
48162;DHT22;33950;48.154;16.316;2023-03-23T15:37:19;25.20;57.50
48162;DHT22;33950;48.154;16.316;2023-03-23T15:40:13;24.80;57.60
48162;DHT22;33950;48.154;16.316;2023-03-23T15:43:08;24.60;57.30
48162;DHT22;33950;48.154;16.316;2023-03-23T15:46:03;24.40;57.10
48162;DHT22;33950;48.154;16.316;2023-03-23T15:48:53;24.30;57.30
48162;DHT22;33950;48.154;16.316;2023-03-23T15:51:40;24.10;57.90
48162;DHT22;33950;48.154;16.316;2023-03-23T15:54:30;24.00;58.40
48162;DHT22;33950;48.154;16.316;2023-03-23T15:57:16;23.90;59.00
48162;DHT22;33950;48.154;16.316;2023-03-23T16:00:03;23.80;59.20
48162;DHT22;33950;48.154;16.316;2023-03-23T16:02:56;23.70;59.30
48162;DHT22;33950;48.154;16.316;2023-03-23T16:05:45;23.60;59.20
48162;DHT22;33950;48.154;16.316;2023-03-23T16:08:31;23.50;59.30
48162;DHT22;33950;48.154;16.316;2023-03-23T16:11:18;23.40;59.90
48162;DHT22;33950;48.154;16.316;2023-03-23T16:14:04;23.40;60.00
48162;DHT22;33950;48.154;16.316;2023-03-23T16:16:50;23.30;60.10
48162;DHT22;33950;48.154;16.316;2023-03-23T16:19:37;23.20;60.40
48162;DHT22;33950;48.154;16.316;2023-03-23T16:22:25;23.20;60.90
48162;DHT22;33950;48.154;16.316;2023-03-23T16:25:11;23.10;60.90
48162;DHT22;33950;48.154;16.316;2023-03-23T16:27:57;23.00;60.90
48162;DHT22;33950;48.154;16.316;2023-03-23T16:30:43;22.90;61.20
48162;DHT22;33950;48.154;16.316;2023-03-23T16:33:30;22.80;61.60
48162;DHT22;33950;48.154;16.316;2023-03-23T16:36:16;22.80;61.80
48162;DHT22;33950;48.154;16.316;2023-03-23T16:39:03;22.80;62.10
48162;DHT22;33950;48.154;16.316;2023-03-23T16:41:50;22.70;62.40
48162;DHT22;33950;48.154;16.316;2023-03-23T16:44:37;22.60;62.60
48162;DHT22;33950;48.154;16.316;2023-03-23T16:47:23;22.60;62.70
48162;DHT22;33950;48.154;16.316;2023-03-23T16:50:12;22.50;63.00
48162;DHT22;33950;48.154;16.316;2023-03-23T16:52:58;22.50;63.30
48162;DHT22;33950;48.154;16.316;2023-03-23T16:55:46;22.40;63.60
48162;DHT22;33950;48.154;16.316;2023-03-23T16:58:33;22.30;63.80
48162;DHT22;33950;48.154;16.316;2023-03-23T17:01:19;22.20;63.90
48162;DHT22;33950;48.154;16.316;2023-03-23T17:04:08;22.20;64.10
48162;DHT22;33950;48.154;16.316;2023-03-23T17:06:55;22.10;64.20
48162;DHT22;33950;48.154;16.316;2023-03-23T17:09:43;22.00;64.40
48162;DHT22;33950;48.154;16.316;2023-03-23T17:12:31;22.00;64.70
48162;DHT22;33950;48.154;16.316;2023-03-23T17:15:17;21.90;64.90
48162;DHT22;33950;48.154;16.316;2023-03-23T17:18:04;21.80;65.40
48162;DHT22;33950;48.154;16.316;2023-03-23T17:20:51;21.70;65.60
48162;DHT22;33950;48.154;16.316;2023-03-23T17:23:37;21.60;65.70
48162;DHT22;33950;48.154;16.316;2023-03-23T17:26:23;21.50;65.80
48162;DHT22;33950;48.154;16.316;2023-03-23T17:29:11;21.40;66.00
48162;DHT22;33950;48.154;16.316;2023-03-23T17:31:57;21.40;66.20
48162;DHT22;33950;48.154;16.316;2023-03-23T17:34:43;21.30;66.10
48162;DHT22;33950;48.154;16.316;2023-03-23T17:37:29;21.20;66.30
48162;DHT22;33950;48.154;16.316;2023-03-23T17:40:16;21.20;66.40
48162;DHT22;33950;48.154;16.316;2023-03-23T17:43:02;21.20;66.50